createdAt,value
2023-06-21T00:00:48.013Z,61.03
2023-06-21T00:03:20.303Z,60.63
2023-06-21T00:05:52.249Z,60.36
2023-06-21T00:08:24.811Z,60.18
2023-06-21T00:10:57.963Z,59.73
2023-06-21T00:13:29.931Z,59.48
2023-06-21T00:16:01.813Z,59.53
2023-06-21T00:18:33.584Z,59.82
2023-06-21T00:21:07.494Z,60.08
2023-06-21T00:23:39.094Z,60.60
2023-06-21T00:26:10.734Z,61.58
2023-06-21T00:28:42.828Z,63.05
2023-06-21T00:31:14.514Z,63.81
2023-06-21T00:33:46.377Z,64.59
2023-06-21T00:36:18.220Z,65.81
2023-06-21T00:38:50.969Z,67.28
2023-06-21T00:41:23.191Z,69.22
2023-06-21T00:43:55.048Z,70.94
2023-06-21T00:46:26.971Z,72.67
2023-06-21T00:49:00.160Z,74.06
2023-06-21T00:51:33.594Z,75.48
2023-06-21T00:54:05.307Z,77.35
2023-06-21T00:56:37.377Z,79.62
2023-06-21T00:59:10.440Z,81.08
2023-06-21T01:01:42.028Z,82.36
2023-06-21T01:04:13.847Z,83.16
2023-06-21T01:06:52.795Z,83.89
2023-06-21T01:09:49.207Z,84.88
2023-06-21T01:12:30.054Z,84.72
2023-06-21T01:15:06.521Z,84.78
2023-06-21T01:17:39.969Z,84.88
2023-06-21T01:20:13.668Z,84.79
2023-06-21T01:23:12.472Z,84.07
2023-06-21T01:25:59.282Z,83.33
2023-06-21T01:28:37.530Z,83.38
2023-06-21T01:31:10.710Z,83.52
2023-06-21T01:33:42.863Z,84.38
2023-06-21T01:36:14.744Z,84.46
2023-06-21T01:38:46.316Z,85.34
2023-06-21T01:41:18.008Z,86.60
2023-06-21T01:43:52.268Z,88.28
2023-06-21T01:46:25.499Z,88.94
2023-06-21T01:48:57.313Z,89.46
2023-06-21T01:51:30.118Z,90.27
2023-06-21T01:54:01.873Z,91.71
2023-06-21T01:56:35.666Z,92.06
2023-06-21T01:59:07.577Z,93.02
2023-06-21T02:01:41.805Z,93.37
2023-06-21T02:04:13.537Z,93.98
2023-06-21T02:06:45.275Z,94.48
2023-06-21T02:09:20.594Z,94.58
2023-06-21T02:11:53.354Z,95.18
2023-06-21T02:14:25.724Z,95.40
2023-06-21T02:16:59.876Z,95.50
2023-06-21T02:19:31.670Z,95.73
2023-06-21T02:22:04.201Z,96.08
2023-06-21T02:24:36.261Z,96.35
2023-06-21T02:27:09.910Z,97.23
2023-06-21T02:29:43.338Z,98.09
2023-06-21T02:32:15.117Z,99.23
2023-06-21T02:34:47.549Z,99.79
2023-06-21T02:37:19.490Z,100.00
2023-06-21T02:39:51.276Z,100.00
2023-06-21T02:42:22.941Z,100.00
2023-06-21T02:44:56.691Z,100.00
2023-06-21T02:47:29.969Z,100.00
2023-06-21T02:50:01.751Z,100.00
2023-06-21T02:52:33.867Z,100.00
2023-06-21T02:55:05.842Z,100.00
2023-06-21T02:57:37.889Z,100.00
2023-06-21T03:00:21.062Z,100.00
2023-06-21T03:02:53.075Z,100.00
2023-06-21T03:05:25.444Z,100.00
2023-06-21T03:07:57.598Z,99.92
2023-06-21T03:10:30.950Z,99.39
2023-06-21T03:13:02.915Z,98.98
2023-06-21T03:15:35.255Z,98.71
2023-06-21T03:18:07.003Z,98.98
2023-06-21T03:20:38.950Z,99.10
2023-06-21T03:23:10.514Z,99.20
2023-06-21T03:25:43.400Z,98.66
2023-06-21T03:28:15.494Z,98.81
2023-06-21T03:30:47.265Z,98.78
2023-06-21T03:33:20.811Z,98.70
2023-06-21T03:35:53.352Z,98.69
2023-06-21T03:38:24.955Z,98.84
2023-06-21T03:40:56.581Z,99.27
2023-06-21T03:43:29.847Z,99.88
2023-06-21T03:46:03.033Z,100.00
2023-06-21T03:48:36.382Z,100.00
2023-06-21T03:51:08.565Z,100.00
2023-06-21T03:53:40.261Z,100.00
2023-06-21T03:56:12.804Z,100.00
2023-06-21T03:58:44.453Z,100.00
2023-06-21T04:01:17.799Z,100.00
2023-06-21T04:03:49.997Z,99.62
2023-06-21T04:06:22.077Z,98.60
2023-06-21T04:08:55.211Z,97.70
2023-06-21T04:11:29.213Z,96.61
2023-06-21T04:14:01.422Z,95.51
2023-06-21T04:16:33.475Z,93.84
2023-06-21T04:19:05.340Z,93.85
2023-06-21T04:21:37.671Z,93.80
2023-06-21T04:24:09.656Z,93.52
2023-06-21T04:26:42.205Z,92.65
2023-06-21T04:29:13.880Z,92.10
2023-06-21T04:31:46.282Z,91.96
2023-06-21T04:34:18.974Z,92.40
2023-06-21T04:36:50.630Z,92.87
2023-06-21T04:39:22.922Z,92.62
2023-06-21T04:41:55.567Z,92.72
2023-06-21T04:44:29.150Z,92.52
2023-06-21T04:47:02.637Z,92.40
2023-06-21T04:49:34.914Z,92.29
2023-06-21T04:52:08.012Z,92.34
2023-06-21T04:54:39.895Z,92.28
2023-06-21T04:57:13.608Z,91.69
2023-06-21T04:59:45.435Z,91.89
2023-06-21T05:02:17.169Z,90.77
2023-06-21T05:04:49.310Z,90.02
2023-06-21T05:07:21.174Z,88.51
2023-06-21T05:09:52.949Z,86.96
2023-06-21T05:12:24.899Z,86.69
2023-06-21T05:14:57.363Z,86.24
2023-06-21T05:17:29.254Z,85.99
2023-06-21T05:20:01.268Z,86.33
2023-06-21T05:22:34.074Z,85.93
2023-06-21T05:25:06.087Z,86.53
2023-06-21T05:27:38.875Z,86.33
2023-06-21T05:30:11.046Z,86.04
2023-06-21T05:32:43.714Z,86.28
2023-06-21T05:35:16.719Z,85.62
2023-06-21T05:37:48.574Z,85.98
2023-06-21T05:40:21.280Z,85.64
2023-06-21T05:42:54.781Z,84.47
2023-06-21T05:45:26.748Z,83.97
2023-06-21T05:48:02.639Z,80.58
2023-06-21T05:50:34.544Z,77.94
2023-06-21T05:53:06.273Z,75.81
2023-06-21T05:55:38.362Z,73.96
2023-06-21T05:58:18.027Z,74.66
2023-06-21T06:00:53.326Z,75.10
2023-06-21T06:03:26.393Z,75.60
2023-06-21T06:05:59.226Z,75.70
2023-06-21T06:08:30.996Z,75.04
2023-06-21T06:11:03.083Z,73.42
2023-06-21T06:13:35.218Z,74.59
2023-06-21T06:16:07.555Z,73.98
2023-06-21T06:18:41.119Z,74.24
2023-06-21T06:21:13.526Z,75.31
2023-06-21T06:23:45.267Z,76.62
2023-06-21T06:26:20.440Z,77.03
2023-06-21T06:28:53.750Z,76.74
2023-06-21T06:31:27.544Z,76.88
2023-06-21T06:33:59.445Z,76.25
2023-06-21T06:36:31.509Z,74.41
2023-06-21T06:39:03.503Z,73.93
2023-06-21T06:41:36.310Z,73.42
2023-06-21T06:44:10.682Z,71.93
2023-06-21T06:46:43.000Z,71.68
2023-06-21T06:49:18.242Z,71.84
2023-06-21T06:51:56.133Z,72.02
2023-06-21T06:54:27.963Z,69.59
2023-06-21T06:56:59.687Z,69.81
2023-06-21T06:59:32.637Z,69.72
2023-06-21T07:02:04.804Z,68.70
2023-06-21T07:04:39.267Z,68.46
2023-06-21T07:07:10.368Z,67.21
2023-06-21T07:09:42.506Z,65.57
2023-06-21T07:12:14.572Z,63.57
2023-06-21T07:14:46.343Z,63.82
2023-06-21T07:17:19.108Z,62.51
2023-06-21T07:19:51.218Z,62.51
2023-06-21T07:22:23.565Z,62.58
2023-06-21T07:24:55.456Z,62.81
2023-06-21T07:27:28.077Z,63.05
2023-06-21T07:30:02.816Z,63.60
2023-06-21T07:32:35.205Z,63.90
2023-06-21T07:35:08.958Z,63.22
2023-06-21T07:37:41.354Z,62.08
2023-06-21T07:40:14.173Z,61.17
2023-06-21T07:42:47.076Z,59.96
2023-06-21T07:45:19.284Z,60.22
2023-06-21T07:47:51.367Z,59.72
2023-06-21T07:50:24.807Z,58.19
2023-06-21T07:52:56.660Z,57.75
2023-06-21T07:55:28.791Z,58.48
2023-06-21T07:58:01.485Z,58.56
2023-06-21T08:00:33.720Z,58.02
2023-06-21T08:03:05.871Z,58.90
2023-06-21T08:05:38.552Z,58.29
2023-06-21T08:08:14.488Z,57.31
2023-06-21T08:10:47.671Z,56.67
2023-06-21T08:13:23.310Z,56.83
2023-06-21T08:15:55.754Z,56.20
2023-06-21T08:18:27.868Z,56.49
2023-06-21T08:20:59.618Z,55.22
2023-06-21T08:23:31.549Z,54.69
2023-06-21T08:26:04.202Z,55.37
2023-06-21T08:28:35.822Z,53.13
2023-06-21T08:31:07.402Z,53.16
2023-06-21T08:33:39.612Z,52.25
2023-06-21T08:36:13.067Z,52.77
2023-06-21T08:38:45.269Z,53.00
2023-06-21T08:41:17.312Z,52.33
2023-06-21T08:43:49.001Z,51.80
2023-06-21T08:46:20.776Z,51.39
2023-06-21T08:48:54.274Z,51.50
2023-06-21T08:51:26.721Z,51.17
2023-06-21T08:54:04.172Z,49.60
2023-06-21T08:56:51.650Z,50.21
2023-06-21T08:59:26.731Z,50.14
2023-06-21T09:02:04.020Z,51.10
2023-06-21T09:04:38.145Z,49.60
2023-06-21T09:07:10.636Z,49.61
2023-06-21T09:09:44.208Z,48.96
2023-06-21T09:12:18.885Z,48.91
2023-06-21T09:14:50.660Z,48.82
2023-06-21T09:17:22.502Z,48.56
2023-06-21T09:19:55.003Z,48.58
2023-06-21T09:22:28.458Z,47.98
2023-06-21T09:25:00.247Z,47.91
2023-06-21T09:27:32.627Z,48.57
2023-06-21T09:30:29.601Z,48.40
2023-06-21T09:32:39.855Z,49.25
2023-06-21T09:35:12.144Z,48.85
2023-06-21T09:37:45.848Z,48.78
2023-06-21T09:40:18.601Z,48.76
2023-06-21T09:42:50.723Z,48.78
2023-06-21T09:45:23.027Z,49.09
2023-06-21T09:47:55.923Z,48.75
2023-06-21T09:50:27.731Z,48.58
2023-06-21T09:53:00.055Z,47.96
2023-06-21T09:55:32.295Z,48.67
2023-06-21T09:58:04.613Z,48.51
2023-06-21T10:00:38.722Z,48.00
2023-06-21T10:03:11.043Z,47.23
2023-06-21T10:05:59.994Z,48.67
2023-06-21T10:08:35.534Z,49.32
2023-06-21T10:11:07.389Z,48.32
2023-06-21T10:13:39.640Z,47.20
2023-06-21T10:16:12.317Z,46.91
2023-06-21T10:18:44.143Z,47.41
2023-06-21T10:21:16.579Z,46.50
2023-06-21T10:23:48.580Z,45.30
2023-06-21T10:26:20.534Z,45.69
2023-06-21T10:28:55.148Z,45.71
2023-06-21T10:31:27.527Z,45.66
2023-06-21T10:33:59.316Z,45.46
2023-06-21T10:36:33.610Z,44.85
2023-06-21T10:39:11.280Z,44.20
2023-06-21T10:41:43.384Z,44.84
2023-06-21T10:44:15.977Z,45.13
2023-06-21T10:46:48.662Z,45.06
2023-06-21T10:49:20.660Z,45.62
2023-06-21T10:51:52.506Z,45.77
2023-06-21T10:54:24.907Z,45.53
2023-06-21T10:56:56.742Z,44.96
2023-06-21T10:59:28.666Z,44.85
2023-06-21T11:02:00.497Z,45.00
2023-06-21T11:04:42.292Z,45.10
2023-06-21T11:07:06.353Z,45.59
2023-06-21T11:09:38.623Z,44.05
2023-06-21T11:12:10.818Z,44.94
2023-06-21T11:14:43.476Z,45.44
2023-06-21T11:17:16.510Z,45.40
2023-06-21T11:19:49.546Z,44.20
2023-06-21T11:22:26.483Z,40.75
2023-06-21T11:25:02.171Z,40.49
2023-06-21T11:27:34.455Z,38.80
2023-06-21T11:30:09.035Z,38.81
2023-06-21T11:32:45.009Z,37.96
2023-06-21T11:35:17.304Z,37.92
2023-06-21T11:37:50.772Z,38.44
2023-06-21T11:40:29.947Z,37.76
2023-06-21T11:43:03.807Z,37.20
2023-06-21T11:45:36.890Z,37.18
2023-06-21T11:48:15.277Z,37.09
2023-06-21T11:50:53.825Z,37.15
2023-06-21T11:53:28.441Z,36.98
2023-06-21T11:56:02.698Z,36.70
2023-06-21T11:58:36.360Z,36.44
2023-06-21T12:01:09.415Z,35.25
2023-06-21T12:03:42.025Z,35.62
2023-06-21T12:06:13.902Z,35.04
2023-06-21T12:08:45.798Z,34.61
2023-06-21T12:11:19.124Z,34.84
2023-06-21T12:13:52.217Z,35.50
2023-06-21T12:16:29.658Z,36.14
2023-06-21T12:19:04.398Z,37.63
2023-06-21T12:21:36.727Z,37.42
2023-06-21T12:24:08.724Z,37.38
2023-06-21T12:26:49.750Z,37.27
2023-06-21T12:29:21.803Z,36.91
2023-06-21T12:31:54.428Z,36.78
2023-06-21T12:34:27.213Z,36.83
2023-06-21T12:37:00.327Z,36.95
2023-06-21T12:39:32.194Z,37.50
2023-06-21T12:42:05.678Z,37.47
2023-06-21T12:44:37.401Z,37.77
2023-06-21T12:47:09.310Z,37.36
2023-06-21T12:49:41.142Z,37.17
2023-06-21T12:52:12.963Z,36.17
2023-06-21T12:54:58.042Z,35.77
2023-06-21T12:57:32.995Z,36.27
2023-06-21T13:00:05.463Z,36.90
2023-06-21T13:02:38.120Z,37.47
2023-06-21T13:05:10.571Z,37.71
2023-06-21T13:07:42.435Z,36.68
2023-06-21T13:10:14.275Z,35.94
2023-06-21T13:12:46.039Z,34.98
2023-06-21T13:15:17.918Z,35.11
2023-06-21T13:17:50.110Z,35.04
2023-06-21T13:20:22.984Z,34.36
2023-06-21T13:22:54.932Z,34.21
2023-06-21T13:25:28.902Z,33.66
2023-06-21T13:28:03.746Z,33.19
2023-06-21T13:30:36.022Z,32.46
2023-06-21T13:33:07.895Z,33.02
2023-06-21T13:35:39.716Z,32.86
2023-06-21T13:38:13.842Z,33.79
2023-06-21T13:40:46.651Z,34.28
2023-06-21T13:43:18.670Z,34.60
2023-06-21T13:45:50.654Z,35.49
2023-06-21T13:48:23.981Z,35.41
2023-06-21T13:50:55.983Z,35.74
2023-06-21T13:53:28.531Z,36.29
2023-06-21T13:56:00.206Z,35.81
2023-06-21T13:58:32.144Z,36.03
2023-06-21T14:01:04.186Z,36.02
2023-06-21T14:03:36.647Z,35.44
2023-06-21T14:06:08.745Z,34.26
2023-06-21T14:08:41.308Z,34.38
2023-06-21T14:11:13.096Z,34.56
2023-06-21T14:13:45.816Z,34.37
2023-06-21T14:16:17.916Z,34.29
2023-06-21T14:18:50.754Z,33.65
2023-06-21T14:21:22.733Z,33.68
2023-06-21T14:23:54.807Z,33.14
2023-06-21T14:26:26.884Z,33.49
2023-06-21T14:28:58.911Z,34.03
2023-06-21T14:31:32.485Z,33.74
2023-06-21T14:34:04.597Z,32.70
2023-06-21T14:36:36.892Z,32.83
2023-06-21T14:39:10.041Z,32.55
2023-06-21T14:41:41.811Z,32.40
2023-06-21T14:44:13.731Z,32.11
2023-06-21T14:46:45.526Z,31.28
2023-06-21T14:49:17.606Z,31.35
2023-06-21T14:51:49.307Z,31.28
2023-06-21T14:54:23.426Z,31.27
2023-06-21T14:56:55.214Z,31.22
2023-06-21T14:59:29.772Z,31.94
2023-06-21T15:02:04.066Z,31.77
2023-06-21T15:04:36.171Z,31.63
2023-06-21T15:07:13.059Z,31.35
2023-06-21T15:09:45.155Z,30.95
2023-06-21T15:12:16.987Z,31.03
2023-06-21T15:14:48.881Z,30.78
2023-06-21T15:17:20.584Z,31.01
2023-06-21T15:19:52.854Z,31.41
2023-06-21T15:22:24.725Z,31.47
2023-06-21T15:24:56.565Z,31.94
2023-06-21T15:27:29.185Z,32.29
2023-06-21T15:30:01.306Z,32.68
2023-06-21T15:32:33.507Z,33.13
2023-06-21T15:35:05.707Z,33.64
2023-06-21T15:37:37.599Z,34.26
2023-06-21T15:40:13.036Z,35.04
2023-06-21T15:42:44.766Z,35.40
2023-06-21T15:45:16.665Z,35.66
2023-06-21T15:47:49.107Z,36.03
2023-06-21T15:50:20.935Z,36.77
2023-06-21T15:52:53.130Z,37.53
2023-06-21T15:55:25.672Z,38.36
2023-06-21T15:57:57.960Z,38.84
2023-06-21T16:00:29.822Z,39.38
2023-06-21T16:03:01.742Z,39.54
2023-06-21T16:05:34.392Z,39.87
2023-06-21T16:08:06.313Z,40.48
2023-06-21T16:10:38.248Z,41.29
2023-06-21T16:13:13.642Z,41.64
2023-06-21T16:15:44.448Z,41.79
2023-06-21T16:18:16.122Z,41.90
2023-06-21T16:20:47.696Z,42.14
2023-06-21T16:23:19.795Z,42.43
2023-06-21T16:25:52.270Z,42.90
2023-06-21T16:28:24.254Z,43.37
2023-06-21T16:30:56.146Z,43.20
2023-06-21T16:33:28.101Z,43.15
2023-06-21T16:36:00.020Z,43.63
2023-06-21T16:38:32.014Z,43.82
2023-06-21T16:41:03.742Z,44.11
2023-06-21T16:43:35.611Z,44.37
2023-06-21T16:46:07.387Z,44.88
2023-06-21T16:48:39.729Z,45.33
2023-06-21T16:51:11.736Z,46.04
2023-06-21T16:53:43.567Z,46.58
2023-06-21T16:56:17.347Z,46.76
2023-06-21T16:58:49.072Z,46.82
2023-06-21T17:01:22.967Z,46.65
2023-06-21T17:03:55.433Z,46.79
2023-06-21T17:06:31.056Z,47.11
2023-06-21T17:09:02.956Z,47.25
2023-06-21T17:11:35.197Z,47.75
2023-06-21T17:14:07.305Z,48.11
2023-06-21T17:16:40.627Z,48.35
2023-06-21T17:19:13.980Z,48.71
2023-06-21T17:21:45.816Z,48.95
2023-06-21T17:24:17.550Z,49.11
2023-06-21T17:26:49.603Z,49.42
2023-06-21T17:29:21.774Z,49.63
2023-06-21T17:31:54.365Z,49.84
2023-06-21T17:34:27.384Z,49.87
2023-06-21T17:36:59.462Z,50.10
2023-06-21T17:39:31.495Z,50.46
2023-06-21T17:42:03.655Z,50.30
2023-06-21T17:44:35.710Z,49.51
2023-06-21T17:47:08.471Z,49.39
2023-06-21T17:49:40.712Z,49.33
2023-06-21T17:52:15.754Z,49.51
2023-06-21T17:54:48.745Z,49.85
2023-06-21T17:57:20.364Z,50.06
2023-06-21T17:59:52.248Z,50.70
2023-06-21T18:02:25.027Z,51.17
2023-06-21T18:04:56.850Z,51.69
2023-06-21T18:07:28.788Z,52.34
2023-06-21T18:10:00.377Z,52.38
2023-06-21T18:12:32.697Z,52.80
2023-06-21T18:15:05.398Z,53.40
2023-06-21T18:17:38.862Z,53.90
2023-06-21T18:20:11.703Z,54.63
2023-06-21T18:22:44.482Z,55.22
2023-06-21T18:25:17.474Z,55.34
2023-06-21T18:27:50.034Z,55.50
2023-06-21T18:30:22.181Z,55.56
2023-06-21T18:32:54.185Z,55.85
2023-06-21T18:35:26.006Z,56.19
2023-06-21T18:37:57.981Z,56.42
2023-06-21T18:40:30.245Z,56.54
2023-06-21T18:43:03.832Z,56.74
2023-06-21T18:45:36.513Z,57.14
2023-06-21T18:48:08.348Z,57.58
2023-06-21T18:50:40.795Z,57.86
2023-06-21T18:53:12.459Z,58.08
2023-06-21T18:55:44.165Z,58.75
2023-06-21T18:58:15.971Z,59.20
2023-06-21T19:00:47.710Z,59.56
2023-06-21T19:03:19.572Z,59.67
2023-06-21T19:05:51.564Z,60.27
2023-06-21T19:08:23.986Z,60.53
2023-06-21T19:10:55.649Z,60.55
2023-06-21T19:13:28.865Z,60.37
2023-06-21T19:16:00.988Z,60.23
2023-06-21T19:18:32.984Z,60.23
2023-06-21T19:21:04.820Z,60.21
2023-06-21T19:23:39.550Z,60.25
2023-06-21T19:26:11.780Z,60.23
2023-06-21T19:28:43.638Z,60.68
2023-06-21T19:31:15.630Z,60.88
2023-06-21T19:33:47.519Z,61.16
2023-06-21T19:36:19.899Z,61.40
2023-06-21T19:38:52.059Z,61.18
2023-06-21T19:41:24.025Z,61.29
2023-06-21T19:43:55.961Z,61.84
2023-06-21T19:46:27.602Z,61.74
2023-06-21T19:48:59.720Z,61.78
2023-06-21T19:51:33.292Z,61.89
2023-06-21T19:54:04.981Z,62.14
2023-06-21T19:56:40.627Z,62.25
2023-06-21T19:59:12.371Z,62.48
2023-06-21T20:01:44.330Z,62.41
2023-06-21T20:04:16.257Z,62.70
2023-06-21T20:06:48.237Z,62.79
2023-06-21T20:09:20.804Z,63.03
2023-06-21T20:11:52.480Z,63.32
2023-06-21T20:14:25.166Z,63.55
2023-06-21T20:16:57.084Z,63.78
2023-06-21T20:19:29.045Z,64.11
2023-06-21T20:22:00.843Z,64.23
2023-06-21T20:24:33.710Z,64.46
2023-06-21T20:27:05.724Z,64.63
2023-06-21T20:29:37.567Z,64.78
2023-06-21T20:32:10.256Z,65.02
2023-06-21T20:34:42.542Z,65.15
2023-06-21T20:37:14.343Z,65.13
2023-06-21T20:39:47.706Z,65.16
2023-06-21T20:42:19.457Z,65.17
2023-06-21T20:44:51.963Z,65.17
2023-06-21T20:47:24.356Z,65.44
2023-06-21T20:49:56.689Z,65.69
2023-06-21T20:52:29.888Z,65.63
2023-06-21T20:55:01.547Z,65.84
2023-06-21T20:57:33.437Z,66.33
2023-06-21T21:00:07.134Z,66.77
2023-06-21T21:02:39.787Z,67.14
2023-06-21T21:05:11.638Z,67.26
2023-06-21T21:07:44.178Z,67.43
2023-06-21T21:10:17.304Z,67.87
2023-06-21T21:12:49.080Z,68.11
2023-06-21T21:15:21.178Z,68.06
2023-06-21T21:17:53.152Z,67.97
2023-06-21T21:20:25.232Z,67.78
2023-06-21T21:22:57.020Z,67.72
2023-06-21T21:25:29.109Z,67.81
2023-06-21T21:28:02.793Z,67.92
2023-06-21T21:30:34.899Z,67.92
2023-06-21T21:33:07.327Z,68.01
2023-06-21T21:35:39.173Z,68.06
2023-06-21T21:38:11.671Z,67.85
2023-06-21T21:40:44.382Z,67.26
2023-06-21T21:43:16.026Z,67.14
2023-06-21T21:45:50.597Z,67.07
2023-06-21T21:48:22.591Z,66.95
2023-06-21T21:50:54.146Z,66.88
2023-06-21T21:53:27.804Z,66.85
2023-06-21T21:55:59.412Z,66.76
2023-06-21T21:58:31.630Z,66.67
2023-06-21T22:01:03.739Z,66.60
2023-06-21T22:03:35.733Z,66.66
2023-06-21T22:06:07.606Z,66.67
2023-06-21T22:08:50.187Z,66.71
2023-06-21T22:11:21.963Z,66.71
2023-06-21T22:13:55.051Z,66.68
2023-06-21T22:16:27.180Z,66.70
2023-06-21T22:18:59.277Z,66.62
2023-06-21T22:21:35.655Z,66.66
2023-06-21T22:24:07.752Z,66.71
2023-06-21T22:26:39.768Z,67.02
2023-06-21T22:29:11.441Z,67.54
2023-06-21T22:31:43.203Z,68.04
2023-06-21T22:34:17.441Z,68.52
2023-06-21T22:36:49.235Z,68.96
2023-06-21T22:39:21.301Z,69.32
2023-06-21T22:41:53.113Z,69.64
2023-06-21T22:44:24.758Z,69.70
2023-06-21T22:46:57.412Z,69.98
2023-06-21T22:49:29.407Z,70.26
2023-06-21T22:52:01.412Z,70.76
2023-06-21T22:54:34.786Z,70.66
2023-06-21T22:57:08.293Z,70.84
2023-06-21T22:59:40.629Z,70.84
2023-06-21T23:02:12.834Z,71.07
2023-06-21T23:04:44.591Z,71.13
2023-06-21T23:07:16.483Z,71.26
2023-06-21T23:09:49.995Z,71.37
2023-06-21T23:12:22.204Z,71.47
2023-06-21T23:14:54.457Z,71.52
2023-06-21T23:17:26.466Z,71.74
2023-06-21T23:19:58.649Z,72.12
2023-06-21T23:22:30.339Z,72.47
2023-06-21T23:25:02.071Z,72.95
2023-06-21T23:27:35.582Z,73.42
2023-06-21T23:30:20.686Z,73.96
2023-06-21T23:32:45.900Z,74.17
2023-06-21T23:35:19.538Z,74.33
2023-06-21T23:37:53.343Z,74.39
2023-06-21T23:40:25.280Z,74.45
2023-06-21T23:42:57.036Z,74.43
2023-06-21T23:45:28.848Z,74.27
2023-06-21T23:48:00.662Z,74.26
2023-06-21T23:50:32.705Z,74.15
2023-06-21T23:53:04.369Z,74.08
2023-06-21T23:55:38.093Z,74.12
2023-06-21T23:58:09.806Z,74.11
